Time,TemperatureF,DewpointF,PressureIn,WindDirection,WindDirectionDegrees,WindSpeedMPH,WindSpeedGustMPH,Humidity,HourlyPrecipIn,Conditions,Clouds,dailyrainin,SolarRadiationWatts/m^2,SoftwareType,DateUTC
2013-05-15 00:00:00,67.0,37.0,-100.00,WNW,295,10.0,18.0,33,0.00,,,0.00,0.000000,,2013-05-15 07:00:00,
2013-05-15 00:22:00,67.0,37.0,-100.00,WNW,295,10.0,18.0,33,0.00,,,0.00,0.000000,,2013-05-15 07:22:00,
2013-05-15 00:32:00,67.0,37.0,-100.00,WNW,295,10.0,18.0,33,0.00,,,0.00,0.000000,,2013-05-15 07:32:00,
2013-05-15 00:42:00,67.0,37.0,-100.00,WNW,295,10.0,18.0,33,0.00,,,0.00,0.000000,,2013-05-15 07:42:00,
2013-05-15 00:52:00,67.0,37.0,-100.00,WNW,295,10.0,18.0,33,0.00,,,0.00,0.000000,,2013-05-15 07:52:00,
2013-05-15 01:00:00,64.0,36.0,-100.00,NW,306,0.0,26.0,35,0.00,,,0.00,0.000000,,2013-05-15 08:00:00,
2013-05-15 01:21:00,64.0,36.0,-100.00,NW,306,0.0,26.0,35,0.00,,,0.00,0.000000,,2013-05-15 08:21:00,
2013-05-15 01:32:00,64.0,36.0,-100.00,NW,306,0.0,26.0,35,0.00,,,0.00,0.000000,,2013-05-15 08:32:00,
2013-05-15 01:42:00,64.0,36.0,-100.00,NW,306,0.0,26.0,35,0.00,,,0.00,0.000000,,2013-05-15 08:42:00,
2013-05-15 01:53:00,64.0,36.0,-100.00,NW,306,0.0,26.0,35,0.00,,,0.00,0.000000,,2013-05-15 08:53:00,
2013-05-15 02:00:00,62.0,37.0,-100.00,NNW,341,0.0,6.0,40,0.00,,,0.00,0.000000,,2013-05-15 09:00:00,
2013-05-15 02:22:00,62.0,37.0,-100.00,NNW,341,0.0,6.0,40,0.00,,,0.00,0.000000,,2013-05-15 09:22:00,
2013-05-15 02:33:00,62.0,37.0,-100.00,NNW,341,0.0,6.0,40,0.00,,,0.00,0.000000,,2013-05-15 09:33:00,
2013-05-15 02:42:00,62.0,37.0,-100.00,NNW,341,0.0,6.0,40,0.00,,,0.00,0.000000,,2013-05-15 09:42:00,
2013-05-15 02:53:00,62.0,37.0,-100.00,NNW,341,0.0,6.0,40,0.00,,,0.00,0.000000,,2013-05-15 09:53:00,
2013-05-15 03:00:00,61.0,39.0,-100.00,SW,226,4.0,11.0,44,0.00,,,0.00,0.000000,,2013-05-15 10:00:00,
2013-05-15 03:32:00,61.0,39.0,-100.00,SW,226,4.0,11.0,44,0.00,,,0.00,0.000000,,2013-05-15 10:32:00,
2013-05-15 03:42:00,61.0,39.0,-100.00,SW,226,4.0,11.0,44,0.00,,,0.00,0.000000,,2013-05-15 10:42:00,
2013-05-15 03:52:00,61.0,39.0,-100.00,SW,226,4.0,11.0,44,0.00,,,0.00,0.000000,,2013-05-15 10:52:00,
2013-05-15 04:00:00,60.0,37.0,-100.00,NE,49,0.0,11.0,43,0.00,,,0.00,0.000000,,2013-05-15 11:00:00,
2013-05-15 04:29:00,60.0,37.0,-100.00,NE,49,0.0,11.0,43,0.00,,,0.00,0.000000,,2013-05-15 11:29:00,
2013-05-15 04:49:00,60.0,37.0,-100.00,NE,49,0.0,11.0,43,0.00,,,0.00,0.000000,,2013-05-15 11:49:00,
2013-05-15 04:57:00,60.0,37.0,-100.00,NE,49,0.0,11.0,43,0.00,,,0.00,0.000000,,2013-05-15 11:57:00,
2013-05-15 05:00:00,62.0,40.0,-100.00,WNW,301,7.0,13.0,44,0.00,,,0.00,0.000000,,2013-05-15 12:00:00,
2013-05-15 05:30:00,62.0,40.0,-100.00,WNW,301,7.0,13.0,44,0.00,,,0.00,0.000000,,2013-05-15 12:30:00,
2013-05-15 05:38:00,62.0,40.0,-100.00,WNW,301,7.0,13.0,44,0.00,,,0.00,0.000000,,2013-05-15 12:38:00,
2013-05-15 05:49:00,62.0,40.0,-100.00,WNW,301,7.0,13.0,44,0.00,,,0.00,0.000000,,2013-05-15 12:49:00,
2013-05-15 05:56:00,62.0,40.0,-100.00,WNW,301,7.0,13.0,44,0.00,,,0.00,0.000000,,2013-05-15 12:56:00,
2013-05-15 06:00:00,62.0,40.0,-100.00,ENE,74,0.0,13.0,45,0.00,,,0.00,0.000000,,2013-05-15 13:00:00,
2013-05-15 06:37:00,62.0,40.0,-100.00,ENE,74,0.0,13.0,45,0.00,,,0.00,0.000000,,2013-05-15 13:37:00,
2013-05-15 06:57:00,62.0,40.0,-100.00,ENE,74,0.0,13.0,45,0.00,,,0.00,0.000000,,2013-05-15 13:57:00,
2013-05-15 07:00:00,59.0,40.0,-100.00,WSW,240,0.0,4.0,50,0.00,,,0.00,1.000000,,2013-05-15 14:00:00,
2013-05-15 07:28:00,59.0,40.0,-100.00,WSW,240,0.0,4.0,50,0.00,,,0.00,1.000000,,2013-05-15 14:28:00,
2013-05-15 07:39:00,59.0,40.0,-100.00,WSW,240,0.0,4.0,50,0.00,,,0.00,1.000000,,2013-05-15 14:39:00,
2013-05-15 07:56:00,59.0,40.0,-100.00,WSW,240,0.0,4.0,50,0.00,,,0.00,1.000000,,2013-05-15 14:56:00,
2013-05-15 08:00:00,64.0,41.0,-100.00,SSE,162,0.0,5.0,43,0.00,,,0.00,100.000000,,2013-05-15 15:00:00,
2013-05-15 08:29:00,64.0,41.0,-100.00,SSE,162,0.0,5.0,43,0.00,,,0.00,100.000000,,2013-05-15 15:29:00,
2013-05-15 08:39:00,64.0,41.0,-100.00,SSE,162,0.0,5.0,43,0.00,,,0.00,100.000000,,2013-05-15 15:39:00,
2013-05-15 08:48:00,64.0,41.0,-100.00,SSE,162,0.0,5.0,43,0.00,,,0.00,100.000000,,2013-05-15 15:48:00,
2013-05-15 08:57:00,64.0,41.0,-100.00,SSE,162,0.0,5.0,43,0.00,,,0.00,100.000000,,2013-05-15 15:57:00,
2013-05-15 09:39:00,69.0,41.0,-100.00,SE,141,0.0,7.0,36,-99.99,,,0.00,379.000000,,2013-05-15 16:39:00,
2013-05-15 09:49:00,69.0,41.0,-100.00,SE,141,0.0,7.0,36,-99.99,,,0.00,379.000000,,2013-05-15 16:49:00,
2013-05-15 09:56:00,69.0,41.0,-100.00,SE,141,0.0,7.0,36,-99.99,,,0.00,379.000000,,2013-05-15 16:56:00,
2013-05-15 11:00:00,80.0,44.0,-100.00,West,262,8.0,12.0,28,-99.99,,,0.00,914.000000,,2013-05-15 18:00:00,
2013-05-15 11:28:00,80.0,44.0,-100.00,West,262,8.0,12.0,28,-99.99,,,0.00,914.000000,,2013-05-15 18:28:00,
2013-05-15 11:38:00,80.0,44.0,-100.00,West,262,8.0,12.0,28,-99.99,,,0.00,914.000000,,2013-05-15 18:38:00,
2013-05-15 11:55:00,80.0,44.0,-100.00,West,262,8.0,12.0,28,-99.99,,,0.00,914.000000,,2013-05-15 18:55:00,
2013-05-15 12:00:00,77.0,43.0,-100.00,West,273,11.0,25.0,30,0.00,,,0.00,1130.000000,,2013-05-15 19:00:00,
2013-05-15 12:39:00,77.0,43.0,-100.00,West,273,11.0,25.0,30,0.00,,,0.00,1130.000000,,2013-05-15 19:39:00,
2013-05-15 12:56:00,77.0,43.0,-100.00,West,273,11.0,25.0,30,0.00,,,0.00,1130.000000,,2013-05-15 19:56:00,
2013-05-15 13:00:00,80.0,43.0,-100.00,West,269,13.0,24.0,27,0.00,,,0.00,1279.000000,,2013-05-15 20:00:00,
2013-05-15 13:40:00,80.0,43.0,-100.00,West,269,13.0,24.0,27,0.00,,,0.00,1279.000000,,2013-05-15 20:40:00,
2013-05-15 13:47:00,80.0,43.0,-100.00,West,269,13.0,24.0,27,0.00,,,0.00,1279.000000,,2013-05-15 20:47:00,
2013-05-15 13:54:00,80.0,43.0,-100.00,West,269,13.0,24.0,27,0.00,,,0.00,1279.000000,,2013-05-15 20:54:00,
2013-05-15 14:00:00,79.0,41.0,-100.00,West,259,10.0,28.0,26,0.00,,,0.00,1339.000000,,2013-05-15 21:00:00,
2013-05-15 14:41:00,79.0,41.0,-100.00,West,259,10.0,28.0,26,0.00,,,0.00,1339.000000,,2013-05-15 21:41:00,
2013-05-15 14:51:00,79.0,41.0,-100.00,West,259,10.0,28.0,26,0.00,,,0.00,1339.000000,,2013-05-15 21:51:00,
2013-05-15 14:58:00,79.0,41.0,-100.00,West,259,10.0,28.0,26,0.00,,,0.00,1339.000000,,2013-05-15 21:58:00,
2013-05-15 15:00:00,81.0,41.0,-100.00,NNW,333,10.0,25.0,24,0.00,,,0.00,1333.000000,,2013-05-15 22:00:00,
2013-05-15 15:51:00,81.0,41.0,-100.00,NNW,333,10.0,25.0,24,0.00,,,0.00,1333.000000,,2013-05-15 22:51:00,
2013-05-15 15:57:00,81.0,41.0,-100.00,NNW,333,10.0,25.0,24,0.00,,,0.00,1333.000000,,2013-05-15 22:57:00,
2013-05-15 16:39:00,80.0,40.0,-100.00,WSW,258,16.0,29.0,24,0.00,,,0.00,1261.000000,,2013-05-15 23:39:00,
2013-05-15 16:50:00,80.0,40.0,-100.00,WSW,258,16.0,29.0,24,0.00,,,0.00,1261.000000,,2013-05-15 23:50:00,
2013-05-15 16:57:00,80.0,40.0,-100.00,WSW,258,16.0,29.0,24,0.00,,,0.00,1261.000000,,2013-05-15 23:57:00,
2013-05-15 17:00:00,79.0,36.0,-100.00,West,261,14.0,29.0,21,0.00,,,-99.99,1075.000000,,2013-05-16 00:00:00,
2013-05-15 17:37:00,79.0,36.0,-100.00,West,261,14.0,29.0,21,0.00,,,-99.99,1075.000000,,2013-05-16 00:37:00,
2013-05-15 17:51:00,79.0,36.0,-100.00,West,261,14.0,29.0,21,0.00,,,-99.99,1075.000000,,2013-05-16 00:51:00,
2013-05-15 18:00:00,76.0,36.0,-100.00,West,269,15.0,27.0,23,0.00,,,0.00,856.000000,,2013-05-16 01:00:00,
2013-05-15 18:49:00,76.0,36.0,-100.00,West,269,15.0,27.0,23,0.00,,,0.00,856.000000,,2013-05-16 01:49:00,
2013-05-15 18:57:00,76.0,36.0,-100.00,West,269,15.0,27.0,23,0.00,,,0.00,856.000000,,2013-05-16 01:57:00,
2013-05-15 19:00:00,76.0,36.0,-100.00,WNW,285,11.0,31.0,23,0.00,,,0.00,283.000000,,2013-05-16 02:00:00,
2013-05-15 19:28:00,76.0,36.0,-100.00,WNW,285,11.0,31.0,23,0.00,,,0.00,283.000000,,2013-05-16 02:28:00,
2013-05-15 19:40:00,76.0,36.0,-100.00,WNW,285,11.0,31.0,23,0.00,,,0.00,283.000000,,2013-05-16 02:40:00,
2013-05-15 19:54:00,76.0,36.0,-100.00,WNW,285,11.0,31.0,23,0.00,,,0.00,283.000000,,2013-05-16 02:54:00,
2013-05-15 20:00:00,70.0,34.0,-100.00,WNW,292,13.0,26.0,26,0.00,,,0.00,58.000000,,2013-05-16 03:00:00,
2013-05-15 20:46:00,70.0,34.0,-100.00,WNW,292,13.0,26.0,26,0.00,,,0.00,58.000000,,2013-05-16 03:46:00,
2013-05-15 20:56:00,70.0,34.0,-100.00,WNW,292,13.0,26.0,26,0.00,,,0.00,58.000000,,2013-05-16 03:56:00,
2013-05-15 21:00:00,69.0,33.0,-100.00,WNW,292,7.0,24.0,26,0.00,,,0.00,19.000000,,2013-05-16 04:00:00,
2013-05-15 21:23:00,69.0,33.0,-100.00,WNW,292,7.0,24.0,26,0.00,,,0.00,19.000000,,2013-05-16 04:23:00,
2013-05-15 21:33:00,69.0,33.0,-100.00,WNW,292,7.0,24.0,26,0.00,,,0.00,19.000000,,2013-05-16 04:33:00,
2013-05-15 21:42:00,69.0,33.0,-100.00,WNW,292,7.0,24.0,26,0.00,,,0.00,19.000000,,2013-05-16 04:42:00,
2013-05-15 21:53:00,69.0,33.0,-100.00,WNW,292,7.0,24.0,26,0.00,,,0.00,19.000000,,2013-05-16 04:53:00,
2013-05-15 22:00:00,67.0,32.0,-100.00,NNW,332,2.0,19.0,27,0.00,,,0.00,0.000000,,2013-05-16 05:00:00,
2013-05-15 22:22:00,67.0,32.0,-100.00,NNW,332,2.0,19.0,27,0.00,,,0.00,0.000000,,2013-05-16 05:22:00,
2013-05-15 22:32:00,67.0,32.0,-100.00,NNW,332,2.0,19.0,27,0.00,,,0.00,0.000000,,2013-05-16 05:32:00,
2013-05-15 22:42:00,67.0,32.0,-100.00,NNW,332,2.0,19.0,27,0.00,,,0.00,0.000000,,2013-05-16 05:42:00,
2013-05-15 22:52:00,67.0,32.0,-100.00,NNW,332,2.0,19.0,27,0.00,,,0.00,0.000000,,2013-05-16 05:52:00,
2013-05-15 23:00:00,62.0,31.0,-100.00,SSW,196,0.0,13.0,31,0.00,,,0.00,0.000000,,2013-05-16 06:00:00,
2013-05-15 23:23:00,62.0,31.0,-100.00,SSW,196,0.0,13.0,31,0.00,,,0.00,0.000000,,2013-05-16 06:23:00,
2013-05-15 23:33:00,62.0,31.0,-100.00,SSW,196,0.0,13.0,31,0.00,,,0.00,0.000000,,2013-05-16 06:33:00,
2013-05-15 23:43:00,62.0,31.0,-100.00,SSW,196,0.0,13.0,31,0.00,,,0.00,0.000000,,2013-05-16 06:43:00,
2013-05-15 23:53:00,62.0,31.0,-100.00,SSW,196,0.0,13.0,31,0.00,,,0.00,0.000000,,2013-05-16 06:53:00,